Warning: Javascript must be enabled to use all the features on this page!


Page Loading - Please Wait...

Click to hideNews Bulletins

Peak Streamflow for the Nation

USGS 14211550 JOHNSON CREEK AT MILWAUKIE, OR

Clackamas County, Oregon
Hydrologic Unit Code 17090012
Latitude  45°27'11", Longitude 122°38'31" NAD27
Drainage area 53.17  square miles
Gage datum 0.00 feet above NGVD29
Output formats
Table
Graph
Tab-separated file
peakfq (watstore) format
Reselect output format
Water
Year
Date Gage
Height
(feet)
Stream-
flow
(cfs)
1990 1990-01-10 28.64 892
1991 1991-02-20 29.28 1,030
1992 1991-12-06 29.21 1,010
1993 1992-12-10 28.46 799
1994 1994-02-24 29.41 1,730
1995 1994-11-01 28.91 1,400
1996 1996-02-08 30.272 2,170
1997 1996-11-19 30.30 1,940
1998 1998-01-14 28.54 1,030
1999 1998-12-28 28.81 1,140
2000 1999-11-26 28.06 840
2001 2001-03-28 26.04 278
2002 2002-01-25 27.90 782
2003 2003-01-31 29.85 1,670
2004 2003-12-14 29.60 1,530
2005 2005-03-27 27.61 682
2006 2005-12-30 29.62 1,540
2007 2006-12-14 29.33 1,390
2008 2007-12-03 30.39 1,990
2009 2009-01-02 30.78 2,080
2010 2010-03-29 28.58 1,030
2011 2010-12-10 29.11 1,250
2012 2012-01-20 30.35 1,850
2013 2012-11-19 29.41 1,570
2014 2013-12-02 27.72 879
2015 2015-03-15 28.46 1,040
2016 2015-12-08 31.33 2,410
2017 2017-02-05 30.04 1,730
2018 2018-04-08 27.53 711
2019 2019-04-08 26.94 532
2020 2020-01-28 27.06 566
?
  Peak Gage-Height Qualification Codes.